TAF and METAR

Decoding for American and Canadian METARs and TAFs is not fully implemented.

Could not understand the following METAR

CYUX 230300Z AUTO 28009KT 9SM BKN070 M32/M35 A2975 RMK SLP077

TAF for Hall Beach Airport

TAF CYUX 230038Z 2301/2313 31012KT P6SM FEW040 SCT240 TEMPO 2301/2304 4SM IC BR FM230400 31015KT P6SM SCT020 BKN050 TEMPO 2304/2313 4SM -SN BKN020 OVC050 RMK FCST BASED ON AUTO OBS. NXT FCST BY 230700Z
Report created 23. feb 01:38

between 23. feb 02:00 - 23. feb 14:00

wind 12 knots from NW (310°)
Hall Beach Airport in Canada at 8m

Latest 5 airports